Indianapolis International, IN

2:31 PM EDT on August 31, 2015 (GMT -0400)
Thompson Medows | | Change Station
CLOSE
Current Station
Personal Weather Station
Location: Indianapolis, IN
Elevation: 745 ft
Nearby Weather Stations

Elev 745 ft 39.69 °N, 86.26 °W | Updated 9 minutes ago

Scattered Clouds
Scattered Clouds
86.4 °F
Feels Like 95 °F
N
3.7
Wind Variable Wind from South

Today
High -- | Low -- °F
--% Chance of Precip.
Yesterday
High -- | Low -- °F
Precip. -- in
7:12 AM 8:18 PM
Waning Gibbous, 94% visible
Pressure 30.09 in
Visibility 10.0 miles
Clouds Scattered Clouds 3300 ft
Heat Index 95 °F
Dew Point 75 °F
Humidity 68%
Rainfall in
Snow Depth Not available.
UV 8 out of 12
Pollen 10.80 out of 12
Air Quality Not available.
Flu Activity Not available.
METAR KIND 311754Z 22007KT 10SM SCT033TCU 28/18 A3011 RMK AO2 SLP187 TCU NE T02830183 10294 20200 58005
Pressure 30.09 in
Visibility 10.0 miles
Clouds Scattered Clouds 3300 ft
Heat Index 95 °F
Dew Point 75 °F
Humidity 68%
Rainfall in
Snow Depth Not available.
UV 8 out of 12
Pollen 10.80 out of 12
Air Quality Not available.
Flu Activity Not available.
METAR KIND 311754Z 22007KT 10SM SCT033TCU 28/18 A3011 RMK AO2 SLP187 TCU NE T02830183 10294 20200 58005

10-Day Weather Forecast

×

Almanac

Astronomy

Aug. 31, 2015 Rise Set
Actual Time
Civil Twilight
Nautical Twilight
Astronomical Twilight
Moon
Length of Visible Light
Length of Day
Tomorrow will be .
, % of the Moon is Illuminated

Today's Extremes

State Highs State Lows

Community

WunderPhotos

Upload Photos

1,851,334 photos uploaded!

WunderBlogs® & News

Nearby

Air Quality

  Air Quality AQ Index Pollutant
Not available.

Snow Depth

Station Depth Elevation

Earthquake Activity

City Distance Mag. Time & Date
Minimum magnitude displayed is 2.5.

Coastal Water Temperatures

Place Temperature

Stations

Nearby Weather Stations

Station Location Temp. Windchill Dew Point Humidity Wind Precip. Elev Updated Type